Chantal — A8WQ3 — position and weather

sailwx.info

Track history (hours):
 
Tides and Currents Weather Stations Pressure Air Temp Water Temp Dewpoint Dewpoint Depression Visibility Wind Speed Wind Dir Waves Ship Positions

Chantal

Last reported at 2017-Jul-29 19:00 UTC. Time now 2017-Aug-18 14:31 UTC.
Position N 37°41' W 122°51'.
Warning: this ship's position is 19 days out of date.

Length 228 m; draft 8.3 m.

Type: Tanker. MMSI: 636014805.

Date/timePositionNaut miles runAvg speedWind from/ knotsBaromVisibWave heightAir tempDewpointWater temp
2017-Jul-29 19:00N 37°41' W 122°51'713.7
2017-Jul-29 18:30N 37°43' W 122°43'4 8.4
2017-Jul-29 18:00N 37°46' W 122°39'715.0
2017-Jul-29 17:30N 37°49' W 122°30'611.1
2017-Jul-29 17:00N 37°53' W 122°26'714.6
2017-Jul-29 16:30N 38°01' W 122°25'714.1
2017-Jul-29 16:00N 38°04' W 122°16'612.0
2017-Jul-29 15:30N 38°02' W 122°09'1 0.1
2017-Jul-28 23:39N 38°03' W 122°08'0 1.6
2017-Jul-28 23:30N 38°02' W 122°08'4 7.0
2017-Jul-28 22:51N 38°04' W 122°13'3 9.9
2017-Jul-28 22:30N 38°03' W 122°18'612.1
2017-Jul-28 22:00N 38°00' W 122°25'611.4
2017-Jul-28 21:30N 37°55' W 122°27'611.0
2017-Jul-28 21:00N 37°50' W 122°24'510.0
2017-Jul-28 20:30N 37°49' W 122°30'612.3
2017-Jul-28 20:00N 37°46' W 122°37'611.8
2017-Jul-28 19:30N 37°43' W 122°43'510.0
2017-Jul-28 19:00N 37°40' W 122°49'713.8
2017-Jul-28 18:30N 37°36' W 122°56'713.6
2017-Jul-28 18:00N 37°32' W 123°03'713.0
2017-Jul-28 17:30N 37°28' W 123°09'611.2
2017-Jul-28 17:00N 37°23' W 123°11'611.8
2017-Jul-28 16:30N 37°17' W 123°11'611.9
2017-Jul-28 16:00N 37°11' W 123°11'611.3
2017-Jul-28 15:30N 37°05' W 123°10'711.4
2017-Jul-28 14:56N 36°60' W 123°06'511.9
2017-Jul-28 14:30N 36°56' W 123°03'611.8
2017-Jul-28 13:59N 36°50' W 122°59'612.1
2017-Jul-28 13:30N 36°45' W 122°56'712.4
2017-Jul-28 12:58N 36°39' W 122°51'612.1
2017-Jul-28 12:28N 36°34' W 122°48'512.0
2017-Jul-28 12:00N 36°29' W 122°44'612.4
2017-Jul-28 11:30N 36°24' W 122°41'612.8
2017-Jul-28 11:00N 36°18' W 122°37'612.7
2017-Jul-28 10:30N 36°13' W 122°33'612.8
2017-Jul-28 10:00N 36°07' W 122°29'713.3
2017-Jul-28 09:30N 36°01' W 122°25'713.0
2017-Jul-28 09:00N 35°56' W 122°21'713.1
2017-Jul-28 08:30N 35°50' W 122°17'713.4
2017-Jul-28 08:00N 35°44' W 122°13'612.9
2017-Jul-28 07:30N 35°39' W 122°09'612.7
2017-Jul-28 07:00N 35°33' W 122°05'613.0
2017-Jul-28 06:30N 35°27' W 122°01'713.5
2017-Jul-28 06:00N 35°21' W 121°57'713.2
2017-Jul-28 05:30N 35°16' W 121°53'613.2
2017-Jul-28 05:00N 35°10' W 121°49'713.1
2017-Jul-28 04:30N 35°04' W 121°45'713.3
2017-Jul-28 04:00N 34°59' W 121°41'713.2
2017-Jul-28 03:30N 34°53' W 121°37'613.1
2017-Jul-28 03:00N 34°47' W 121°34'713.4
2017-Jul-28 02:30N 34°41' W 121°30'713.4
2017-Jul-28 02:00N 34°35' W 121°25'713.7
2017-Jul-28 01:28N 34°29' W 121°21'613.1
2017-Jul-28 01:00N 34°24' W 121°17'713.1
2017-Jul-28 00:30N 34°18' W 121°13'713.0
2017-Jul-28 00:00N 34°12' W 121°10'612.8
2017-Jul-27 23:30N 34°07' W 121°06'612.7
2017-Jul-27 23:00N 34°01' W 121°02'612.0
2017-Jul-27 22:30N 33°57' W 120°56'713.3
2017-Jul-27 21:59N 33°55' W 120°49'713.8
2017-Jul-27 21:30N 33°53' W 120°41'713.6
2017-Jul-27 20:59N 33°51' W 120°33'613.6
2017-Jul-27 20:30N 33°49' W 120°26'713.2
2017-Jul-27 20:00N 33°47' W 120°18'713.5
2017-Jul-27 19:30N 33°44' W 120°10'713.6
2017-Jul-27 18:58N 33°42' W 120°02'713.6
2017-Jul-27 18:27N 33°40' W 119°54'613.1
2017-Jul-27 18:00N 33°38' W 119°47'713.6
2017-Jul-27 17:30N 33°38' W 119°39'713.6
2017-Jul-27 17:00N 33°38' W 119°31'713.6
2017-Jul-27 16:30N 33°38' W 119°23'713.7
2017-Jul-27 16:01N 33°38' W 119°15'713.1
2017-Jul-27 15:30N 33°38' W 119°07'611.5
2017-Jul-27 14:59N 33°38' W 118°60'1111.1
2017-Jul-27 14:00N 33°38' W 118°47'611.4
2017-Jul-27 13:30N 33°38' W 118°40'611.6
2017-Jul-27 13:00N 33°38' W 118°33'611.5
2017-Jul-27 12:30N 33°37' W 118°26'611.5
2017-Jul-27 12:00N 33°35' W 118°20'511.0
2017-Jul-27 11:30N 33°36' W 118°13'511.0
2017-Jul-27 11:00N 33°41' W 118°11'3 6.6
2017-Jul-27 10:30N 33°44' W 118°13'2 4.3
2017-Jul-27 10:00N 33°46' W 118°13'0 0.0
2017-Jul-27 09:30N 33°46' W 118°13'0 0.0
2017-Jul-27 07:54N 33°46' W 118°13'0 0.0
2017-Jul-27 04:12N 33°46' W 118°13'0 0.0
2017-Jul-27 03:42N 33°46' W 118°13'0 0.0
2017-Jul-27 03:30N 33°46' W 118°13'0 0.0
2017-Jul-27 03:00N 33°46' W 118°13'0 0.0
2017-Jul-27 02:24N 33°46' W 118°13'0 0.0
2017-Jul-27 01:54N 33°46' W 118°13'0 0.0
2017-Jul-27 01:24N 33°46' W 118°13'0 0.0
2017-Jul-27 01:00N 33°46' W 118°13'0 0.0
2017-Jul-26 13:36N 33°46' W 118°13'0 0.0
2017-Jul-26 03:53N 33°46' W 118°13'0 0.0
2017-Jul-26 03:23N 33°46' W 118°13'0 0.0
2017-Jul-26 02:47N 33°46' W 118°13'0 0.0
2017-Jul-26 02:23N 33°46' W 118°13'0 0.9
2017-Jul-26 02:00N 33°46' W 118°13'2 4.6
2017-Jul-26 01:30N 33°44' W 118°12'1 2.6
2017-Jul-26 00:58N 33°44' W 118°10'0 0.0
2017-Jul-25 23:22N 33°44' W 118°10'0 0.0
2017-Jul-25 21:22N 33°44' W 118°10'0 0.0
2017-Jul-25 20:58N 33°44' W 118°10'0 0.0
2017-Jul-25 20:28N 33°44' W 118°10'0 0.0
2017-Jul-25 19:49N 33°44' W 118°10'0 0.0
2017-Jul-25 19:16N 33°44' W 118°10'0 0.0
2017-Jul-25 18:52N 33°44' W 118°10'0 0.0
2017-Jul-25 18:25N 33°44' W 118°10'0 0.0
2017-Jul-25 14:52N 33°44' W 118°10'0 0.0
2017-Jul-25 13:58N 33°44' W 118°10'0 0.0
2017-Jul-25 13:28N 33°44' W 118°10'0 0.0
2017-Jul-25 12:55N 33°44' W 118°10'0 0.0
2017-Jul-25 12:16N 33°44' W 118°10'0 0.0
2017-Jul-25 11:58N 33°44' W 118°10'0 0.0
2017-Jul-25 11:28N 33°44' W 118°10'0 0.0
2017-Jul-25 10:55N 33°44' W 118°10'0 0.0
2017-Jul-25 10:28N 33°44' W 118°10'0 0.0
2017-Jul-25 09:58N 33°44' W 118°10'0 0.0
2017-Jul-25 09:28N 33°44' W 118°10'0 0.0
2017-Jul-25 08:58N 33°44' W 118°10'0 0.0
2017-Jul-25 08:28N 33°44' W 118°10'0 0.0
2017-Jul-25 07:37N 33°44' W 118°10'0 0.0
2017-Jul-25 07:19N 33°44' W 118°10'0 0.0
2017-Jul-25 06:58N 33°44' W 118°10'0 0.0
2017-Jul-25 06:28N 33°44' W 118°10'0 0.0
2017-Jul-25 05:58N 33°44' W 118°10'0 0.0
2017-Jul-25 05:28N 33°44' W 118°10'0 0.0
2017-Jul-25 04:58N 33°44' W 118°10'0 0.1
2017-Jul-25 04:28N 33°44' W 118°10'0 0.1
2017-Jul-25 03:58N 33°44' W 118°10'0 0.0
2017-Jul-25 03:28N 33°44' W 118°10'0 0.1
2017-Jul-25 02:58N 33°44' W 118°10'0 0.1
2017-Jul-25 02:28N 33°44' W 118°10'0 0.0
2017-Jul-25 01:58N 33°44' W 118°10'0 0.0
2017-Jul-25 01:28N 33°44' W 118°10'0 0.0
2017-Jul-25 00:58N 33°44' W 118°10'0 0.0
2017-Jul-25 00:25N 33°44' W 118°10'0 0.0
2017-Jul-24 23:49N 33°44' W 118°10'0 0.0
2017-Jul-24 23:28N 33°44' W 118°10'0 0.0
2017-Jul-24 22:58N 33°44' W 118°10'0 0.0
2017-Jul-24 22:25N 33°44' W 118°10'0 0.1
2017-Jul-24 21:58N 33°44' W 118°10'0 0.0
2017-Jul-24 21:28N 33°44' W 118°10'0 0.0
2017-Jul-24 20:58N 33°44' W 118°10'0 0.0
2017-Jul-24 20:22N 33°44' W 118°10'0 0.0
2017-Jul-24 19:46N 33°44' W 118°10'0 0.0
2017-Jul-24 19:28N 33°44' W 118°10'0 0.2
2017-Jul-24 18:58N 33°44' W 118°11'0 0.1
2017-Jul-24 18:22N 33°44' W 118°11'0 0.1
2017-Jul-24 18:00N 33°44' W 118°11'2 4.5
2017-Jul-24 17:30N 33°42' W 118°10'2 3.3
2017-Jul-24 17:00N 33°42' W 118°08'0 0.0
2017-Jul-24 16:30N 33°42' W 118°08'0 0.0
2017-Jul-24 15:45N 33°42' W 118°08'0 0.0
2017-Jul-24 12:54N 33°42' W 118°08'0 0.0
2017-Jul-24 12:30N 33°42' W 118°08'0 0.0
2017-Jul-24 12:00N 33°42' W 118°08'0 0.0
2017-Jul-24 11:30N 33°42' W 118°08'0 0.0
2017-Jul-24 11:00N 33°42' W 118°08'0 0.1
2017-Jul-24 10:30N 33°42' W 118°08'0 0.0
2017-Jul-24 10:00N 33°42' W 118°08'0 0.0
2017-Jul-24 09:30N 33°42' W 118°08'0 0.0
2017-Jul-24 09:00N 33°42' W 118°08'0 0.1
2017-Jul-24 08:30N 33°42' W 118°08'0 0.0
2017-Jul-24 08:00N 33°42' W 118°08'0 0.0
2017-Jul-24 07:30N 33°42' W 118°08'0 0.0
2017-Jul-24 07:00N 33°42' W 118°08'0 0.0
2017-Jul-24 06:30N 33°42' W 118°08'0 0.0
2017-Jul-24 06:00N 33°42' W 118°08'0 0.0
2017-Jul-24 05:30N 33°42' W 118°08'0 0.1
2017-Jul-24 04:57N 33°42' W 118°08'0 0.0
2017-Jul-24 04:30N 33°42' W 118°08'0 0.0
2017-Jul-24 04:00N 33°42' W 118°08'0 0.0
2017-Jul-24 03:30N 33°42' W 118°08'0 0.0
2017-Jul-24 03:00N 33°42' W 118°08'0 0.0
2017-Jul-24 02:30N 33°42' W 118°08'0 0.0
2017-Jul-24 02:00N 33°42' W 118°08'0 0.0
2017-Jul-24 01:30N 33°42' W 118°08'0 0.0
2017-Jul-24 01:00N 33°42' W 118°08'0 0.0
2017-Jul-24 00:30N 33°42' W 118°08'0 0.0
2017-Jul-24 00:00N 33°42' W 118°08'0 0.0
2017-Jul-23 23:30N 33°42' W 118°08'0 0.0
2017-Jul-23 23:00N 33°42' W 118°08'0 0.0
2017-Jul-23 22:30N 33°42' W 118°08'0 0.0
2017-Jul-23 22:00N 33°42' W 118°08'0 0.0
2017-Jul-23 21:30N 33°42' W 118°08'0 0.0
2017-Jul-23 21:00N 33°42' W 118°08'0 0.0
2017-Jul-23 20:15N 33°42' W 118°08'0 0.1
2017-Jul-23 19:57N 33°42' W 118°08'0 0.0
2017-Jul-23 19:27N 33°42' W 118°08'0 0.0
2017-Jul-23 19:00N 33°42' W 118°08'0 0.1
2017-Jul-23 18:30N 33°42' W 118°08'0 0.1
2017-Jul-23 18:00N 33°42' W 118°08'0 0.0
2017-Jul-23 17:30N 33°42' W 118°08'0 0.0
2017-Jul-23 17:00N 33°42' W 118°08'0 0.0
2017-Jul-23 16:30N 33°42' W 118°08'0 0.1
2017-Jul-23 16:00N 33°42' W 118°08'0 0.1
2017-Jul-23 15:27N 33°42' W 118°08'0 0.1
2017-Jul-23 15:00N 33°42' W 118°08'0 0.1
2017-Jul-23 14:30N 33°42' W 118°08'0 0.0
2017-Jul-23 14:00N 33°42' W 118°08'0 0.0
2017-Jul-23 13:27N 33°42' W 118°08'0 0.0
2017-Jul-23 13:00N 33°42' W 118°08'0 0.0
2017-Jul-23 12:27N 33°42' W 118°08'0 0.0
2017-Jul-23 12:00N 33°42' W 118°08'0 0.1
2017-Jul-23 11:30N 33°42' W 118°08'0 0.1
2017-Jul-23 11:00N 33°42' W 118°08'0 0.1
2017-Jul-23 10:30N 33°42' W 118°08'0 0.0
2017-Jul-23 09:57N 33°42' W 118°08'0 0.0
2017-Jul-23 09:30N 33°42' W 118°08'0 0.0
2017-Jul-23 09:00N 33°42' W 118°08'0 0.0
2017-Jul-23 08:30N 33°42' W 118°08'0 0.0
2017-Jul-23 08:00N 33°42' W 118°08'0 0.0
2017-Jul-23 07:30N 33°42' W 118°08'0 0.0
2017-Jul-23 07:00N 33°42' W 118°08'0 0.0
2017-Jul-23 06:30N 33°42' W 118°08'0 0.1
2017-Jul-23 06:00N 33°42' W 118°08'0 0.0
2017-Jul-23 05:30N 33°42' W 118°08'0 0.0
2017-Jul-23 04:57N 33°42' W 118°08'0 0.0
2017-Jul-23 04:30N 33°42' W 118°08'0 0.0
2017-Jul-23 04:00N 33°42' W 118°08'0 0.0
2017-Jul-23 03:12N 33°42' W 118°08'0 0.0
2017-Jul-23 03:00N 33°42' W 118°08'0 0.0
2017-Jul-23 02:27N 33°42' W 118°08'0 0.0
2017-Jul-23 02:00N 33°42' W 118°08'0 0.0
2017-Jul-23 01:30N 33°42' W 118°08'0 0.0
2017-Jul-23 01:00N 33°42' W 118°08'0 0.0
2017-Jul-23 00:30N 33°42' W 118°08'0 0.0
2017-Jul-23 00:00N 33°42' W 118°08'0 0.0
2017-Jul-22 23:30N 33°42' W 118°08'0 0.0
2017-Jul-22 23:00N 33°42' W 118°08'0 0.0
2017-Jul-22 22:30N 33°42' W 118°08'0 0.0
2017-Jul-22 22:00N 33°42' W 118°08'0 0.0
2017-Jul-22 21:30N 33°42' W 118°08'0 0.0
2017-Jul-22 20:54N 33°42' W 118°08'0 0.0
2017-Jul-22 20:30N 33°42' W 118°08'0 0.0
2017-Jul-22 20:00N 33°42' W 118°08'0 0.1
2017-Jul-22 19:30N 33°42' W 118°08'0 0.1
2017-Jul-22 19:00N 33°42' W 118°08'0 0.1
2017-Jul-22 18:30N 33°42' W 118°08'0 0.2
2017-Jul-22 18:00N 33°42' W 118°08'0 0.0
2017-Jul-22 17:30N 33°42' W 118°08'0 0.1
2017-Jul-22 17:00N 33°42' W 118°08'0 0.0
2017-Jul-22 16:30N 33°42' W 118°08'0 0.0
2017-Jul-22 16:00N 33°42' W 118°08'0 0.0
2017-Jul-22 15:30N 33°42' W 118°08'0 0.1
2017-Jul-22 14:57N 33°42' W 118°08'0 0.0
2017-Jul-22 14:00N 33°42' W 118°08'0 0.1
2017-Jul-22 13:27N 33°42' W 118°08'0 0.2
2017-Jul-22 13:00N 33°42' W 118°08'0 0.2
2017-Jul-22 12:30N 33°42' W 118°08'0 0.1
2017-Jul-22 12:00N 33°42' W 118°08'0 0.0
2017-Jul-22 11:30N 33°42' W 118°08'0 0.0
2017-Jul-22 11:00N 33°42' W 118°08'0 0.0
2017-Jul-22 10:21N 33°42' W 118°08'0 0.0
2017-Jul-22 10:00N 33°42' W 118°08'0 0.0
2017-Jul-22 09:30N 33°42' W 118°08'0 0.0
2017-Jul-22 09:00N 33°42' W 118°08'0 0.1
2017-Jul-22 08:30N 33°42' W 118°08'0 0.0
2017-Jul-22 08:00N 33°42' W 118°08'0 0.0
2017-Jul-22 07:30N 33°42' W 118°08'0 0.0
2017-Jul-22 07:00N 33°42' W 118°08'0 0.0
2017-Jul-22 06:30N 33°42' W 118°08'0 0.0
2017-Jul-22 06:00N 33°42' W 118°08'0 0.0
2017-Jul-22 05:30N 33°42' W 118°08'0 0.0
2017-Jul-22 05:00N 33°42' W 118°08'0 0.0
2017-Jul-22 04:30N 33°42' W 118°08'0 0.0
2017-Jul-22 04:00N 33°42' W 118°08'0 0.1
2017-Jul-22 03:30N 33°42' W 118°08'0 0.1
2017-Jul-22 03:00N 33°42' W 118°08'0 0.0
2017-Jul-22 02:27N 33°42' W 118°08'0 0.0
2017-Jul-22 01:54N 33°42' W 118°08'0 0.0
2017-Jul-22 01:30N 33°42' W 118°08'0 0.0
2017-Jul-22 01:00N 33°42' W 118°08'0 0.0
2017-Jul-22 00:30N 33°42' W 118°08'0 0.0
2017-Jul-22 00:00N 33°42' W 118°08'0 0.1
2017-Jul-21 23:30N 33°42' W 118°08'0 0.0
2017-Jul-21 23:00N 33°42' W 118°08'0 0.0
2017-Jul-21 22:30N 33°42' W 118°08'0 0.0
2017-Jul-21 22:00N 33°42' W 118°08'0 0.0
2017-Jul-21 21:30N 33°42' W 118°08'0 0.0
2017-Jul-21 21:00N 33°42' W 118°08'0 0.0
2017-Jul-21 20:30N 33°42' W 118°08'0 0.0
2017-Jul-21 19:48N 33°42' W 118°08'0 0.0
2017-Jul-21 19:30N 33°42' W 118°08'0 0.0
2017-Jul-21 19:00N 33°42' W 118°08'0 0.1
2017-Jul-21 18:30N 33°42' W 118°08'0 0.0
2017-Jul-21 18:00N 33°42' W 118°08'0 0.1
2017-Jul-21 17:30N 33°42' W 118°08'0 0.0
2017-Jul-21 17:00N 33°42' W 118°08'0 0.0
2017-Jul-21 16:24N 33°42' W 118°08'0 0.1
2017-Jul-21 16:00N 33°42' W 118°08'0 0.0
2017-Jul-21 15:30N 33°42' W 118°08'0 0.0
2017-Jul-21 15:00N 33°42' W 118°08'0 0.1
2017-Jul-21 14:30N 33°42' W 118°08'0 0.0
2017-Jul-21 14:00N 33°42' W 118°08'0 0.0
2017-Jul-21 13:30N 33°42' W 118°08'0 0.1
2017-Jul-21 12:57N 33°42' W 118°08'0 0.0
2017-Jul-21 12:30N 33°42' W 118°08'0 0.0
2017-Jul-21 12:00N 33°42' W 118°08'0 0.0
2017-Jul-21 11:30N 33°42' W 118°08'0 0.0
2017-Jul-21 11:00N 33°42' W 118°08'0 0.1
2017-Jul-21 10:30N 33°42' W 118°08'0 0.1
2017-Jul-21 10:00N 33°42' W 118°08'0 0.1
2017-Jul-21 09:30N 33°42' W 118°08'0 0.0
2017-Jul-21 09:00N 33°42' W 118°08'0 0.0
2017-Jul-21 08:30N 33°42' W 118°08'0 0.1
2017-Jul-21 08:00N 33°42' W 118°08'0 0.1
2017-Jul-21 07:30N 33°42' W 118°08'0 0.0
2017-Jul-21 07:00N 33°42' W 118°08'0 0.0
2017-Jul-21 06:30N 33°42' W 118°08'0 0.0
2017-Jul-21 06:00N 33°42' W 118°08'0 0.0
2017-Jul-21 05:30N 33°42' W 118°08'0 0.1
2017-Jul-21 05:00N 33°42' W 118°08'0 0.0
2017-Jul-21 04:30N 33°42' W 118°08'0 0.1
2017-Jul-21 04:00N 33°42' W 118°08'0 0.0
2017-Jul-21 03:30N 33°42' W 118°08'0 0.0
2017-Jul-21 02:48N 33°42' W 118°08'0 0.0
2017-Jul-21 02:30N 33°42' W 118°08'0 0.0
2017-Jul-21 02:00N 33°42' W 118°08'0 0.0
2017-Jul-21 01:30N 33°42' W 118°08'0 0.0
2017-Jul-21 01:00N 33°42' W 118°08'0 0.1
2017-Jul-21 00:30N 33°42' W 118°08'0 0.0
2017-Jul-21 00:00N 33°42' W 118°08'0 0.0
2017-Jul-20 23:30N 33°42' W 118°08'0 0.0
2017-Jul-20 23:00N 33°42' W 118°08'0 0.0
2017-Jul-20 22:30N 33°42' W 118°08'0 0.1
2017-Jul-20 22:00N 33°42' W 118°08'0 0.0
2017-Jul-20 21:30N 33°42' W 118°08'0 0.0
2017-Jul-20 20:57N 33°42' W 118°08'0 0.0
2017-Jul-20 20:27N 33°42' W 118°08'0 0.0
2017-Jul-20 20:00N 33°42' W 118°08'0 0.0
2017-Jul-20 19:30N 33°42' W 118°08'0 0.1
2017-Jul-20 19:00N 33°42' W 118°08'0 0.0
2017-Jul-20 18:30N 33°42' W 118°08'0 0.0
2017-Jul-20 18:00N 33°42' W 118°08'0 0.0
2017-Jul-20 17:30N 33°42' W 118°08'0 0.1
2017-Jul-20 17:00N 33°42' W 118°08'0 0.1
2017-Jul-20 16:30N 33°42' W 118°08'0 0.1
2017-Jul-20 16:00N 33°42' W 118°08'0 0.0
2017-Jul-20 15:30N 33°42' W 118°08'0 0.0
2017-Jul-20 15:00N 33°42' W 118°08'0 0.0
2017-Jul-20 14:00N 33°42' W 118°08'0 0.0
2017-Jul-20 13:30N 33°42' W 118°08'0 0.1
2017-Jul-20 13:00N 33°42' W 118°08'0 0.0
2017-Jul-20 12:30N 33°42' W 118°08'0 0.0
2017-Jul-20 12:00N 33°42' W 118°08'0 0.0
2017-Jul-20 11:30N 33°42' W 118°08'0 0.0
2017-Jul-20 11:00N 33°42' W 118°08'0 0.0
2017-Jul-20 10:30N 33°42' W 118°08'0 0.1
2017-Jul-20 10:00N 33°42' W 118°08'0 0.1
2017-Jul-20 09:30N 33°42' W 118°08'0 0.2
2017-Jul-20 09:00N 33°42' W 118°08'0 0.1
2017-Jul-20 08:30N 33°42' W 118°08'0 0.1
2017-Jul-20 08:00N 33°42' W 118°08'0 0.0
2017-Jul-20 07:30N 33°42' W 118°08'0 0.0
2017-Jul-20 07:00N 33°42' W 118°08'0 0.1
2017-Jul-20 06:27N 33°42' W 118°08'0 0.0
2017-Jul-20 06:00N 33°42' W 118°08'0 0.0
2017-Jul-20 05:30N 33°42' W 118°08'0 0.0
2017-Jul-20 05:00N 33°42' W 118°08'0 0.0
2017-Jul-20 04:30N 33°42' W 118°08'0 0.1
2017-Jul-20 04:00N 33°42' W 118°08'0 0.0
2017-Jul-20 03:30N 33°42' W 118°08'0 0.0
2017-Jul-20 03:00N 33°42' W 118°08'0 0.1
2017-Jul-20 02:27N 33°42' W 118°08'0 0.0
2017-Jul-20 02:00N 33°42' W 118°08'0 0.0
2017-Jul-20 01:30N 33°42' W 118°08'0 0.0
2017-Jul-20 01:00N 33°42' W 118°08'0 0.1
2017-Jul-20 00:30N 33°42' W 118°08'0 0.0
2017-Jul-20 00:00N 33°42' W 118°08'0 0.0
2017-Jul-19 23:30N 33°42' W 118°08'0 0.1
2017-Jul-19 22:57N 33°42' W 118°08'0 0.0
2017-Jul-19 22:30N 33°42' W 118°08'0 0.0
2017-Jul-19 21:57N 33°42' W 118°08'0 0.0
2017-Jul-19 21:30N 33°42' W 118°08'0 0.0
2017-Jul-19 21:00N 33°42' W 118°08'0 0.0
2017-Jul-19 20:30N 33°42' W 118°08'0 0.0
2017-Jul-19 20:00N 33°42' W 118°08'0 0.0
2017-Jul-19 19:30N 33°42' W 118°08'  
Track history (hours):
 
Tides and Currents Weather Stations Pressure Air Temp Water Temp Dewpoint Dewpoint Depression Visibility Wind Speed Wind Dir Waves Ship Positions

Chantal

Last reported at 2017-Jul-29 19:00 UTC. Time now 2017-Aug-18 14:31 UTC.
Position N 37°41' W 122°51'.
Warning: this ship's position is 19 days out of date.

Length 228 m; draft 8.3 m.

Type: Tanker. MMSI: 636014805.

Date/timePositionNaut miles runAvg speedWind from/ knotsBaromVisibWave heightAir tempDewpointWater temp
2017-Jul-29 19:00N 37°41' W 122°51'713.7
2017-Jul-29 18:30N 37°43' W 122°43'4 8.4
2017-Jul-29 18:00N 37°46' W 122°39'715.0
2017-Jul-29 17:30N 37°49' W 122°30'611.1
2017-Jul-29 17:00N 37°53' W 122°26'714.6
2017-Jul-29 16:30N 38°01' W 122°25'714.1
2017-Jul-29 16:00N 38°04' W 122°16'612.0
2017-Jul-29 15:30N 38°02' W 122°09'1 0.1
2017-Jul-28 23:39N 38°03' W 122°08'0 1.6
2017-Jul-28 23:30N 38°02' W 122°08'4 7.0
2017-Jul-28 22:51N 38°04' W 122°13'3 9.9
2017-Jul-28 22:30N 38°03' W 122°18'612.1
2017-Jul-28 22:00N 38°00' W 122°25'611.4
2017-Jul-28 21:30N 37°55' W 122°27'611.0
2017-Jul-28 21:00N 37°50' W 122°24'510.0
2017-Jul-28 20:30N 37°49' W 122°30'612.3
2017-Jul-28 20:00N 37°46' W 122°37'611.8
2017-Jul-28 19:30N 37°43' W 122°43'510.0
2017-Jul-28 19:00N 37°40' W 122°49'713.8
2017-Jul-28 18:30N 37°36' W 122°56'713.6
2017-Jul-28 18:00N 37°32' W 123°03'713.0
2017-Jul-28 17:30N 37°28' W 123°09'611.2
2017-Jul-28 17:00N 37°23' W 123°11'611.8
2017-Jul-28 16:30N 37°17' W 123°11'611.9
2017-Jul-28 16:00N 37°11' W 123°11'611.3
2017-Jul-28 15:30N 37°05' W 123°10'711.4
2017-Jul-28 14:56N 36°60' W 123°06'511.9
2017-Jul-28 14:30N 36°56' W 123°03'611.8
2017-Jul-28 13:59N 36°50' W 122°59'612.1
2017-Jul-28 13:30N 36°45' W 122°56'712.4
2017-Jul-28 12:58N 36°39' W 122°51'612.1
2017-Jul-28 12:28N 36°34' W 122°48'512.0
2017-Jul-28 12:00N 36°29' W 122°44'612.4
2017-Jul-28 11:30N 36°24' W 122°41'612.8
2017-Jul-28 11:00N 36°18' W 122°37'612.7
2017-Jul-28 10:30N 36°13' W 122°33'612.8
2017-Jul-28 10:00N 36°07' W 122°29'713.3
2017-Jul-28 09:30N 36°01' W 122°25'713.0
2017-Jul-28 09:00N 35°56' W 122°21'713.1
2017-Jul-28 08:30N 35°50' W 122°17'713.4
2017-Jul-28 08:00N 35°44' W 122°13'612.9
2017-Jul-28 07:30N 35°39' W 122°09'612.7
2017-Jul-28 07:00N 35°33' W 122°05'613.0
2017-Jul-28 06:30N 35°27' W 122°01'713.5
2017-Jul-28 06:00N 35°21' W 121°57'713.2
2017-Jul-28 05:30N 35°16' W 121°53'613.2
2017-Jul-28 05:00N 35°10' W 121°49'713.1
2017-Jul-28 04:30N 35°04' W 121°45'713.3
2017-Jul-28 04:00N 34°59' W 121°41'713.2
2017-Jul-28 03:30N 34°53' W 121°37'613.1
2017-Jul-28 03:00N 34°47' W 121°34'713.4
2017-Jul-28 02:30N 34°41' W 121°30'713.4
2017-Jul-28 02:00N 34°35' W 121°25'713.7
2017-Jul-28 01:28N 34°29' W 121°21'613.1
2017-Jul-28 01:00N 34°24' W 121°17'713.1
2017-Jul-28 00:30N 34°18' W 121°13'713.0
2017-Jul-28 00:00N 34°12' W 121°10'612.8
2017-Jul-27 23:30N 34°07' W 121°06'612.7
2017-Jul-27 23:00N 34°01' W 121°02'612.0
2017-Jul-27 22:30N 33°57' W 120°56'713.3
2017-Jul-27 21:59N 33°55' W 120°49'713.8
2017-Jul-27 21:30N 33°53' W 120°41'713.6
2017-Jul-27 20:59N 33°51' W 120°33'613.6
2017-Jul-27 20:30N 33°49' W 120°26'713.2
2017-Jul-27 20:00N 33°47' W 120°18'713.5
2017-Jul-27 19:30N 33°44' W 120°10'713.6
2017-Jul-27 18:58N 33°42' W 120°02'713.6
2017-Jul-27 18:27N 33°40' W 119°54'613.1
2017-Jul-27 18:00N 33°38' W 119°47'713.6
2017-Jul-27 17:30N 33°38' W 119°39'713.6
2017-Jul-27 17:00N 33°38' W 119°31'713.6
2017-Jul-27 16:30N 33°38' W 119°23'713.7
2017-Jul-27 16:01N 33°38' W 119°15'713.1
2017-Jul-27 15:30N 33°38' W 119°07'611.5
2017-Jul-27 14:59N 33°38' W 118°60'1111.1
2017-Jul-27 14:00N 33°38' W 118°47'611.4
2017-Jul-27 13:30N 33°38' W 118°40'611.6
2017-Jul-27 13:00N 33°38' W 118°33'611.5
2017-Jul-27 12:30N 33°37' W 118°26'611.5
2017-Jul-27 12:00N 33°35' W 118°20'511.0
2017-Jul-27 11:30N 33°36' W 118°13'511.0
2017-Jul-27 11:00N 33°41' W 118°11'3 6.6
2017-Jul-27 10:30N 33°44' W 118°13'2 4.3
2017-Jul-27 10:00N 33°46' W 118°13'0 0.0
2017-Jul-27 09:30N 33°46' W 118°13'0 0.0
2017-Jul-27 07:54N 33°46' W 118°13'0 0.0
2017-Jul-27 04:12N 33°46' W 118°13'0 0.0
2017-Jul-27 03:42N 33°46' W 118°13'0 0.0
2017-Jul-27 03:30N 33°46' W 118°13'0 0.0
2017-Jul-27 03:00N 33°46' W 118°13'0 0.0
2017-Jul-27 02:24N 33°46' W 118°13'0 0.0
2017-Jul-27 01:54N 33°46' W 118°13'0 0.0
2017-Jul-27 01:24N 33°46' W 118°13'0 0.0
2017-Jul-27 01:00N 33°46' W 118°13'0 0.0
2017-Jul-26 13:36N 33°46' W 118°13'0 0.0
2017-Jul-26 03:53N 33°46' W 118°13'0 0.0
2017-Jul-26 03:23N 33°46' W 118°13'0 0.0
2017-Jul-26 02:47N 33°46' W 118°13'0 0.0
2017-Jul-26 02:23N 33°46' W 118°13'0 0.9
2017-Jul-26 02:00N 33°46' W 118°13'2 4.6
2017-Jul-26 01:30N 33°44' W 118°12'1 2.6
2017-Jul-26 00:58N 33°44' W 118°10'0 0.0
2017-Jul-25 23:22N 33°44' W 118°10'0 0.0
2017-Jul-25 21:22N 33°44' W 118°10'0 0.0
2017-Jul-25 20:58N 33°44' W 118°10'0 0.0
2017-Jul-25 20:28N 33°44' W 118°10'0 0.0
2017-Jul-25 19:49N 33°44' W 118°10'0 0.0
2017-Jul-25 19:16N 33°44' W 118°10'0 0.0
2017-Jul-25 18:52N 33°44' W 118°10'0 0.0
2017-Jul-25 18:25N 33°44' W 118°10'0 0.0
2017-Jul-25 14:52N 33°44' W 118°10'0 0.0
2017-Jul-25 13:58N 33°44' W 118°10'0 0.0
2017-Jul-25 13:28N 33°44' W 118°10'0 0.0
2017-Jul-25 12:55N 33°44' W 118°10'0 0.0
2017-Jul-25 12:16N 33°44' W 118°10'0 0.0
2017-Jul-25 11:58N 33°44' W 118°10'0 0.0
2017-Jul-25 11:28N 33°44' W 118°10'0 0.0
2017-Jul-25 10:55N 33°44' W 118°10'0 0.0
2017-Jul-25 10:28N 33°44' W 118°10'0 0.0
2017-Jul-25 09:58N 33°44' W 118°10'0 0.0
2017-Jul-25 09:28N 33°44' W 118°10'0 0.0
2017-Jul-25 08:58N 33°44' W 118°10'0 0.0
2017-Jul-25 08:28N 33°44' W 118°10'0 0.0
2017-Jul-25 07:37N 33°44' W 118°10'0 0.0
2017-Jul-25 07:19N 33°44' W 118°10'0 0.0
2017-Jul-25 06:58N 33°44' W 118°10'0 0.0
2017-Jul-25 06:28N 33°44' W 118°10'0 0.0
2017-Jul-25 05:58N 33°44' W 118°10'0 0.0
2017-Jul-25 05:28N 33°44' W 118°10'0 0.0
2017-Jul-25 04:58N 33°44' W 118°10'0 0.1
2017-Jul-25 04:28N 33°44' W 118°10'0 0.1
2017-Jul-25 03:58N 33°44' W 118°10'0 0.0
2017-Jul-25 03:28N 33°44' W 118°10'0 0.1
2017-Jul-25 02:58N 33°44' W 118°10'0 0.1
2017-Jul-25 02:28N 33°44' W 118°10'0 0.0
2017-Jul-25 01:58N 33°44' W 118°10'0 0.0
2017-Jul-25 01:28N 33°44' W 118°10'0 0.0
2017-Jul-25 00:58N 33°44' W 118°10'0 0.0
2017-Jul-25 00:25N 33°44' W 118°10'0 0.0
2017-Jul-24 23:49N 33°44' W 118°10'0 0.0
2017-Jul-24 23:28N 33°44' W 118°10'0 0.0
2017-Jul-24 22:58N 33°44' W 118°10'0 0.0
2017-Jul-24 22:25N 33°44' W 118°10'0 0.1
2017-Jul-24 21:58N 33°44' W 118°10'0 0.0
2017-Jul-24 21:28N 33°44' W 118°10'0 0.0
2017-Jul-24 20:58N 33°44' W 118°10'0 0.0
2017-Jul-24 20:22N 33°44' W 118°10'0 0.0
2017-Jul-24 19:46N 33°44' W 118°10'0 0.0
2017-Jul-24 19:28N 33°44' W 118°10'0 0.2
2017-Jul-24 18:58N 33°44' W 118°11'0 0.1
2017-Jul-24 18:22N 33°44' W 118°11'0 0.1
2017-Jul-24 18:00N 33°44' W 118°11'2 4.5
2017-Jul-24 17:30N 33°42' W 118°10'2 3.3
2017-Jul-24 17:00N 33°42' W 118°08'0 0.0
2017-Jul-24 16:30N 33°42' W 118°08'0 0.0
2017-Jul-24 15:45N 33°42' W 118°08'0 0.0
2017-Jul-24 12:54N 33°42' W 118°08'0 0.0
2017-Jul-24 12:30N 33°42' W 118°08'0 0.0
2017-Jul-24 12:00N 33°42' W 118°08'0 0.0
2017-Jul-24 11:30N 33°42' W 118°08'0 0.0
2017-Jul-24 11:00N 33°42' W 118°08'0 0.1
2017-Jul-24 10:30N 33°42' W 118°08'0 0.0
2017-Jul-24 10:00N 33°42' W 118°08'0 0.0
2017-Jul-24 09:30N 33°42' W 118°08'0 0.0
2017-Jul-24 09:00N 33°42' W 118°08'0 0.1
2017-Jul-24 08:30N 33°42' W 118°08'0 0.0
2017-Jul-24 08:00N 33°42' W 118°08'0 0.0
2017-Jul-24 07:30N 33°42' W 118°08'0 0.0
2017-Jul-24 07:00N 33°42' W 118°08'0 0.0
2017-Jul-24 06:30N 33°42' W 118°08'0 0.0
2017-Jul-24 06:00N 33°42' W 118°08'0 0.0
2017-Jul-24 05:30N 33°42' W 118°08'0 0.1
2017-Jul-24 04:57N 33°42' W 118°08'0 0.0
2017-Jul-24 04:30N 33°42' W 118°08'0 0.0
2017-Jul-24 04:00N 33°42' W 118°08'0 0.0
2017-Jul-24 03:30N 33°42' W 118°08'0 0.0
2017-Jul-24 03:00N 33°42' W 118°08'0 0.0
2017-Jul-24 02:30N 33°42' W 118°08'0 0.0
2017-Jul-24 02:00N 33°42' W 118°08'0 0.0
2017-Jul-24 01:30N 33°42' W 118°08'0 0.0
2017-Jul-24 01:00N 33°42' W 118°08'0 0.0
2017-Jul-24 00:30N 33°42' W 118°08'0 0.0
2017-Jul-24 00:00N 33°42' W 118°08'0 0.0
2017-Jul-23 23:30N 33°42' W 118°08'0 0.0
2017-Jul-23 23:00N 33°42' W 118°08'0 0.0
2017-Jul-23 22:30N 33°42' W 118°08'0 0.0
2017-Jul-23 22:00N 33°42' W 118°08'0 0.0
2017-Jul-23 21:30N 33°42' W 118°08'0 0.0
2017-Jul-23 21:00N 33°42' W 118°08'0 0.0
2017-Jul-23 20:15N 33°42' W 118°08'0 0.1
2017-Jul-23 19:57N 33°42' W 118°08'0 0.0
2017-Jul-23 19:27N 33°42' W 118°08'0 0.0
2017-Jul-23 19:00N 33°42' W 118°08'0 0.1
2017-Jul-23 18:30N 33°42' W 118°08'0 0.1
2017-Jul-23 18:00N 33°42' W 118°08'0 0.0
2017-Jul-23 17:30N 33°42' W 118°08'0 0.0
2017-Jul-23 17:00N 33°42' W 118°08'0 0.0
2017-Jul-23 16:30N 33°42' W 118°08'0 0.1
2017-Jul-23 16:00N 33°42' W 118°08'0 0.1
2017-Jul-23 15:27N 33°42' W 118°08'0 0.1
2017-Jul-23 15:00N 33°42' W 118°08'0 0.1
2017-Jul-23 14:30N 33°42' W 118°08'0 0.0
2017-Jul-23 14:00N 33°42' W 118°08'0 0.0
2017-Jul-23 13:27N 33°42' W 118°08'0 0.0
2017-Jul-23 13:00N 33°42' W 118°08'0 0.0
2017-Jul-23 12:27N 33°42' W 118°08'0 0.0
2017-Jul-23 12:00N 33°42' W 118°08'0 0.1
2017-Jul-23 11:30N 33°42' W 118°08'0 0.1
2017-Jul-23 11:00N 33°42' W 118°08'0 0.1
2017-Jul-23 10:30N 33°42' W 118°08'0 0.0
2017-Jul-23 09:57N 33°42' W 118°08'0 0.0
2017-Jul-23 09:30N 33°42' W 118°08'0 0.0
2017-Jul-23 09:00N 33°42' W 118°08'0 0.0
2017-Jul-23 08:30N 33°42' W 118°08'0 0.0
2017-Jul-23 08:00N 33°42' W 118°08'0 0.0
2017-Jul-23 07:30N 33°42' W 118°08'0 0.0
2017-Jul-23 07:00N 33°42' W 118°08'0 0.0
2017-Jul-23 06:30N 33°42' W 118°08'0 0.1
2017-Jul-23 06:00N 33°42' W 118°08'0 0.0
2017-Jul-23 05:30N 33°42' W 118°08'0 0.0
2017-Jul-23 04:57N 33°42' W 118°08'0 0.0
2017-Jul-23 04:30N 33°42' W 118°08'0 0.0
2017-Jul-23 04:00N 33°42' W 118°08'0 0.0
2017-Jul-23 03:12N 33°42' W 118°08'0 0.0
2017-Jul-23 03:00N 33°42' W 118°08'0 0.0
2017-Jul-23 02:27N 33°42' W 118°08'0 0.0
2017-Jul-23 02:00N 33°42' W 118°08'0 0.0
2017-Jul-23 01:30N 33°42' W 118°08'0 0.0
2017-Jul-23 01:00N 33°42' W 118°08'0 0.0
2017-Jul-23 00:30N 33°42' W 118°08'0 0.0
2017-Jul-23 00:00N 33°42' W 118°08'0 0.0
2017-Jul-22 23:30N 33°42' W 118°08'0 0.0
2017-Jul-22 23:00N 33°42' W 118°08'0 0.0
2017-Jul-22 22:30N 33°42' W 118°08'0 0.0
2017-Jul-22 22:00N 33°42' W 118°08'0 0.0
2017-Jul-22 21:30N 33°42' W 118°08'0 0.0
2017-Jul-22 20:54N 33°42' W 118°08'0 0.0
2017-Jul-22 20:30N 33°42' W 118°08'0 0.0
2017-Jul-22 20:00N 33°42' W 118°08'0 0.1
2017-Jul-22 19:30N 33°42' W 118°08'0 0.1
2017-Jul-22 19:00N 33°42' W 118°08'0 0.1
2017-Jul-22 18:30N 33°42' W 118°08'0 0.2
2017-Jul-22 18:00N 33°42' W 118°08'0 0.0
2017-Jul-22 17:30N 33°42' W 118°08'0 0.1
2017-Jul-22 17:00N 33°42' W 118°08'0 0.0
2017-Jul-22 16:30N 33°42' W 118°08'0 0.0
2017-Jul-22 16:00N 33°42' W 118°08'0 0.0
2017-Jul-22 15:30N 33°42' W 118°08'0 0.1
2017-Jul-22 14:57N 33°42' W 118°08'0 0.0
2017-Jul-22 14:00N 33°42' W 118°08'0 0.1
2017-Jul-22 13:27N 33°42' W 118°08'0 0.2
2017-Jul-22 13:00N 33°42' W 118°08'0 0.2
2017-Jul-22 12:30N 33°42' W 118°08'0 0.1
2017-Jul-22 12:00N 33°42' W 118°08'0 0.0
2017-Jul-22 11:30N 33°42' W 118°08'0 0.0
2017-Jul-22 11:00N 33°42' W 118°08'0 0.0
2017-Jul-22 10:21N 33°42' W 118°08'0 0.0
2017-Jul-22 10:00N 33°42' W 118°08'0 0.0
2017-Jul-22 09:30N 33°42' W 118°08'0 0.0
2017-Jul-22 09:00N 33°42' W 118°08'0 0.1
2017-Jul-22 08:30N 33°42' W 118°08'0 0.0
2017-Jul-22 08:00N 33°42' W 118°08'0 0.0
2017-Jul-22 07:30N 33°42' W 118°08'0 0.0
2017-Jul-22 07:00N 33°42' W 118°08'0 0.0
2017-Jul-22 06:30N 33°42' W 118°08'0 0.0
2017-Jul-22 06:00N 33°42' W 118°08'0 0.0
2017-Jul-22 05:30N 33°42' W 118°08'0 0.0
2017-Jul-22 05:00N 33°42' W 118°08'0 0.0
2017-Jul-22 04:30N 33°42' W 118°08'0 0.0
2017-Jul-22 04:00N 33°42' W 118°08'0 0.1
2017-Jul-22 03:30N 33°42' W 118°08'0 0.1
2017-Jul-22 03:00N 33°42' W 118°08'0 0.0
2017-Jul-22 02:27N 33°42' W 118°08'0 0.0
2017-Jul-22 01:54N 33°42' W 118°08'0 0.0
2017-Jul-22 01:30N 33°42' W 118°08'0 0.0
2017-Jul-22 01:00N 33°42' W 118°08'0 0.0
2017-Jul-22 00:30N 33°42' W 118°08'0 0.0
2017-Jul-22 00:00N 33°42' W 118°08'0 0.1
2017-Jul-21 23:30N 33°42' W 118°08'0 0.0
2017-Jul-21 23:00N 33°42' W 118°08'0 0.0
2017-Jul-21 22:30N 33°42' W 118°08'0 0.0
2017-Jul-21 22:00N 33°42' W 118°08'0 0.0
2017-Jul-21 21:30N 33°42' W 118°08'0 0.0
2017-Jul-21 21:00N 33°42' W 118°08'0 0.0
2017-Jul-21 20:30N 33°42' W 118°08'0 0.0
2017-Jul-21 19:48N 33°42' W 118°08'0 0.0
2017-Jul-21 19:30N 33°42' W 118°08'0 0.0
2017-Jul-21 19:00N 33°42' W 118°08'0 0.1
2017-Jul-21 18:30N 33°42' W 118°08'0 0.0
2017-Jul-21 18:00N 33°42' W 118°08'0 0.1
2017-Jul-21 17:30N 33°42' W 118°08'0 0.0
2017-Jul-21 17:00N 33°42' W 118°08'0 0.0
2017-Jul-21 16:24N 33°42' W 118°08'0 0.1
2017-Jul-21 16:00N 33°42' W 118°08'0 0.0
2017-Jul-21 15:30N 33°42' W 118°08'0 0.0
2017-Jul-21 15:00N 33°42' W 118°08'0 0.1
2017-Jul-21 14:30N 33°42' W 118°08'0 0.0
2017-Jul-21 14:00N 33°42' W 118°08'0 0.0
2017-Jul-21 13:30N 33°42' W 118°08'0 0.1
2017-Jul-21 12:57N 33°42' W 118°08'0 0.0
2017-Jul-21 12:30N 33°42' W 118°08'0 0.0
2017-Jul-21 12:00N 33°42' W 118°08'0 0.0
2017-Jul-21 11:30N 33°42' W 118°08'0 0.0
2017-Jul-21 11:00N 33°42' W 118°08'0 0.1
2017-Jul-21 10:30N 33°42' W 118°08'0 0.1
2017-Jul-21 10:00N 33°42' W 118°08'0 0.1
2017-Jul-21 09:30N 33°42' W 118°08'0 0.0
2017-Jul-21 09:00N 33°42' W 118°08'0 0.0
2017-Jul-21 08:30N 33°42' W 118°08'0 0.1
2017-Jul-21 08:00N 33°42' W 118°08'0 0.1
2017-Jul-21 07:30N 33°42' W 118°08'0 0.0
2017-Jul-21 07:00N 33°42' W 118°08'0 0.0
2017-Jul-21 06:30N 33°42' W 118°08'0 0.0
2017-Jul-21 06:00N 33°42' W 118°08'0 0.0
2017-Jul-21 05:30N 33°42' W 118°08'0 0.1
2017-Jul-21 05:00N 33°42' W 118°08'0 0.0
2017-Jul-21 04:30N 33°42' W 118°08'0 0.1
2017-Jul-21 04:00N 33°42' W 118°08'0 0.0
2017-Jul-21 03:30N 33°42' W 118°08'0 0.0
2017-Jul-21 02:48N 33°42' W 118°08'0 0.0
2017-Jul-21 02:30N 33°42' W 118°08'0 0.0
2017-Jul-21 02:00N 33°42' W 118°08'0 0.0
2017-Jul-21 01:30N 33°42' W 118°08'0 0.0
2017-Jul-21 01:00N 33°42' W 118°08'0 0.1
2017-Jul-21 00:30N 33°42' W 118°08'0 0.0
2017-Jul-21 00:00N 33°42' W 118°08'0 0.0
2017-Jul-20 23:30N 33°42' W 118°08'0 0.0
2017-Jul-20 23:00N 33°42' W 118°08'0 0.0
2017-Jul-20 22:30N 33°42' W 118°08'0 0.1
2017-Jul-20 22:00N 33°42' W 118°08'0 0.0
2017-Jul-20 21:30N 33°42' W 118°08'0 0.0
2017-Jul-20 20:57N 33°42' W 118°08'0 0.0
2017-Jul-20 20:27N 33°42' W 118°08'0 0.0
2017-Jul-20 20:00N 33°42' W 118°08'0 0.0
2017-Jul-20 19:30N 33°42' W 118°08'0 0.1
2017-Jul-20 19:00N 33°42' W 118°08'0 0.0
2017-Jul-20 18:30N 33°42' W 118°08'0 0.0
2017-Jul-20 18:00N 33°42' W 118°08'0 0.0
2017-Jul-20 17:30N 33°42' W 118°08'0 0.1
2017-Jul-20 17:00N 33°42' W 118°08'0 0.1
2017-Jul-20 16:30N 33°42' W 118°08'0 0.1
2017-Jul-20 16:00N 33°42' W 118°08'0 0.0
2017-Jul-20 15:30N 33°42' W 118°08'0 0.0
2017-Jul-20 15:00N 33°42' W 118°08'0 0.0
2017-Jul-20 14:00N 33°42' W 118°08'0 0.0
2017-Jul-20 13:30N 33°42' W 118°08'0 0.1
2017-Jul-20 13:00N 33°42' W 118°08'0 0.0
2017-Jul-20 12:30N 33°42' W 118°08'0 0.0
2017-Jul-20 12:00N 33°42' W 118°08'0 0.0
2017-Jul-20 11:30N 33°42' W 118°08'0 0.0
2017-Jul-20 11:00N 33°42' W 118°08'0 0.0
2017-Jul-20 10:30N 33°42' W 118°08'0 0.1
2017-Jul-20 10:00N 33°42' W 118°08'0 0.1
2017-Jul-20 09:30N 33°42' W 118°08'0 0.2
2017-Jul-20 09:00N 33°42' W 118°08'0 0.1
2017-Jul-20 08:30N 33°42' W 118°08'0 0.1
2017-Jul-20 08:00N 33°42' W 118°08'0 0.0
2017-Jul-20 07:30N 33°42' W 118°08'0 0.0
2017-Jul-20 07:00N 33°42' W 118°08'0 0.1
2017-Jul-20 06:27N 33°42' W 118°08'0 0.0
2017-Jul-20 06:00N 33°42' W 118°08'0 0.0
2017-Jul-20 05:30N 33°42' W 118°08'0 0.0
2017-Jul-20 05:00N 33°42' W 118°08'0 0.0
2017-Jul-20 04:30N 33°42' W 118°08'0 0.1
2017-Jul-20 04:00N 33°42' W 118°08'0 0.0
2017-Jul-20 03:30N 33°42' W 118°08'0 0.0
2017-Jul-20 03:00N 33°42' W 118°08'0 0.1
2017-Jul-20 02:27N 33°42' W 118°08'0 0.0
2017-Jul-20 02:00N 33°42' W 118°08'0 0.0
2017-Jul-20 01:30N 33°42' W 118°08'0 0.0
2017-Jul-20 01:00N 33°42' W 118°08'0 0.1
2017-Jul-20 00:30N 33°42' W 118°08'0 0.0
2017-Jul-20 00:00N 33°42' W 118°08'0 0.0
2017-Jul-19 23:30N 33°42' W 118°08'0 0.1
2017-Jul-19 22:57N 33°42' W 118°08'0 0.0
2017-Jul-19 22:30N 33°42' W 118°08'0 0.0
2017-Jul-19 21:57N 33°42' W 118°08'0 0.0
2017-Jul-19 21:30N 33°42' W 118°08'0 0.0
2017-Jul-19 21:00N 33°42' W 118°08'0 0.0
2017-Jul-19 20:30N 33°42' W 118°08'0 0.0
2017-Jul-19 20:00N 33°42' W 118°08'0 0.0
2017-Jul-19 19:30N 33°42' W 118°08'  

Dump ship's entire track history